Time;durP1;ratioP1;P1;durP2;ratioP2;P2;SDS_P1;SDS_P2;PMS_P1;PMS_P2;Temp;Humidity;BMP_temperature;BMP_pressure;BME280_temperature;BME280_humidity;BME280_pressure;Samples;Min_cycle;Max_cycle;Signal;HPM_P1;HPM_P2
2023/08/12 00:05:08;;;;;;;5.78;2.33;;;;;;;22.77;52.48;101684.59;16205186;19;129559;-69
2023/08/12 00:10:30;;;;;;;6.65;2.75;;;;;;;22.75;52.44;101676.47;16207406;19;131248;-69
2023/08/12 00:15:52;;;;;;;5.35;2.42;;;;;;;22.75;52.28;101670.88;16156141;19;129235;-73
2023/08/12 00:21:14;;;;;;;6.40;2.45;;;;;;;22.74;52.07;101675.63;16131080;19;129897;-73
2023/08/12 00:26:36;;;;;;;6.38;2.83;;;;;;;22.73;52.24;101678.66;16176723;19;128926;-70
2023/08/12 00:31:58;;;;;;;6.13;2.85;;;;;;;22.72;52.28;101675.03;16185855;19;129284;-70
2023/08/12 00:37:20;;;;;;;6.03;2.88;;;;;;;22.72;52.42;101663.88;16181008;19;130340;-70
2023/08/12 00:42:43;;;;;;;5.47;2.80;;;;;;;22.71;52.27;101652.97;16154906;19;129304;-71
2023/08/12 00:48:06;;;;;;;5.00;2.70;;;;;;;22.71;51.88;101647.38;16127149;19;130219;-69
2023/08/12 00:53:28;;;;;;;5.13;2.35;;;;;;;22.70;52.55;101652.13;16126902;19;129926;-70
2023/08/12 00:58:51;;;;;;;5.22;2.08;;;;;;;22.70;52.18;101637.38;16118121;19;130603;-71
2023/08/12 01:04:14;;;;;;;3.85;2.40;;;;;;;22.69;52.06;101633.72;16124636;19;129757;-71
2023/08/12 01:09:36;;;;;;;4.57;2.35;;;;;;;22.67;52.20;101627.53;16124709;19;129182;-71
2023/08/12 01:15:21;;;;;;;4.38;2.40;;;;;;;22.68;51.93;101625.63;16122872;19;130203;-71
2023/08/12 01:20:44;;;;;;;5.67;1.90;;;;;;;22.66;52.54;101614.69;16122927;19;129892;-71
2023/08/12 01:26:06;;;;;;;4.18;2.30;;;;;;;22.66;52.22;101611.06;16123416;19;129187;-70
2023/08/12 01:31:41;;;;;;;6.38;2.20;;;;;;;22.67;52.14;101610.81;16120528;19;130635;-71
2023/08/12 01:37:07;;;;;;;3.03;2.13;;;;;;;22.64;52.09;101600.19;16127374;19;129946;-71
2023/08/12 01:42:32;;;;;;;4.30;1.98;;;;;;;22.64;52.07;101597.41;16126860;19;130331;-71
2023/08/12 01:47:54;;;;;;;3.30;2.00;;;;;;;22.63;52.13;101603.22;16127206;19;129748;-71
2023/08/12 01:53:16;;;;;;;2.70;1.75;;;;;;;22.63;52.45;101600.44;16125018;19;129409;-71
2023/08/12 01:58:38;;;;;;;4.20;1.83;;;;;;;22.63;52.03;101598.50;16126253;19;129893;-72
2023/08/12 02:04:00;;;;;;;3.33;1.45;;;;;;;22.61;52.12;101606.28;16120044;19;130237;-71
2023/08/12 02:09:22;;;;;;;3.25;1.80;;;;;;;22.61;52.25;101595.13;16122443;19;130340;-72
2023/08/12 02:14:44;;;;;;;4.05;2.00;;;;;;;22.59;52.24;101584.19;16121332;19;133194;-72
2023/08/12 02:20:07;;;;;;;2.78;1.98;;;;;;;22.60;52.07;101585.06;16121294;19;130932;-71
2023/08/12 02:25:30;;;;;;;2.42;1.73;;;;;;;22.60;51.99;101579.50;16120784;19;130839;-71
2023/08/12 02:30:52;;;;;;;8.45;1.75;;;;;;;22.59;52.27;101567.47;16121426;19;129519;-70
2023/08/12 02:36:15;;;;;;;4.22;1.83;;;;;;;22.59;52.25;101550.75;16118821;19;129932;-70
2023/08/12 02:41:37;;;;;;;2.50;1.30;;;;;;;22.57;52.09;101552.97;16116318;19;130937;-70
2023/08/12 02:46:59;;;;;;;3.60;1.50;;;;;;;22.57;51.87;101539.03;16120800;19;129403;-70
2023/08/12 02:52:21;;;;;;;3.45;1.80;;;;;;;22.57;52.26;101527.00;16116801;19;129628;-70
2023/08/12 02:57:43;;;;;;;3.17;1.50;;;;;;;22.57;52.07;101518.66;16116644;19;130829;-72
2023/08/12 03:03:05;;;;;;;1.80;1.33;;;;;;;22.55;52.04;101520.84;16120132;19;130307;-70
2023/08/12 03:08:27;;;;;;;3.38;1.45;;;;;;;22.54;51.94;101520.03;16116437;19;130228;-69
2023/08/12 03:13:49;;;;;;;3.60;1.35;;;;;;;22.54;51.71;101520.03;16118584;19;131158;-71
2023/08/12 03:19:11;;;;;;;2.30;1.50;;;;;;;22.54;52.42;101514.44;16117635;19;131004;-70
2023/08/12 03:24:33;;;;;;;4.30;1.55;;;;;;;22.53;52.07;101507.19;16115440;19;131159;-70
2023/08/12 03:29:58;;;;;;;1.73;1.45;;;;;;;22.54;51.63;101500.50;16113028;19;130602;-70
2023/08/12 03:35:20;;;;;;;2.28;1.40;;;;;;;22.52;51.97;101493.50;16116921;19;129777;-70
2023/08/12 03:40:42;;;;;;;2.58;1.48;;;;;;;22.52;52.12;101490.72;16114342;19;129435;-70
2023/08/12 03:46:05;;;;;;;3.40;1.40;;;;;;;22.52;52.29;101485.13;16113471;19;130851;-71
2023/08/12 03:51:26;;;;;;;2.05;1.38;;;;;;;22.51;51.90;101486.25;16120073;19;130544;-71
2023/08/12 03:56:49;;;;;;;1.73;1.20;;;;;;;22.51;51.98;101486.25;16133648;19;129770;-71
2023/08/12 04:02:11;;;;;;;1.88;1.40;;;;;;;22.51;52.04;101483.44;16123002;19;130523;-71
2023/08/12 04:07:32;;;;;;;2.78;1.45;;;;;;;22.50;51.79;101473.41;16120332;19;129349;-70
2023/08/12 04:12:54;;;;;;;3.17;1.58;;;;;;;22.49;51.92;101482.88;16127910;19;130242;-71
2023/08/12 04:18:18;;;;;;;1.27;1.17;;;;;;;22.48;52.20;101470.84;16127853;19;130781;-70
2023/08/12 04:23:40;;;;;;;1.40;1.27;;;;;;;22.50;51.64;101462.25;16124426;19;131242;-71
2023/08/12 04:29:02;;;;;;;1.70;1.30;;;;;;;22.48;52.17;101454.13;16122568;19;130090;-70
2023/08/12 04:34:24;;;;;;;2.28;1.30;;;;;;;22.49;52.35;101463.34;16122704;19;130223;-70
2023/08/12 04:39:47;;;;;;;2.30;1.30;;;;;;;22.48;51.90;101436.56;16123066;19;129705;-70
2023/08/12 04:45:10;;;;;;;3.17;1.38;;;;;;;22.47;51.93;101432.09;16122800;19;129777;-70
2023/08/12 04:50:34;;;;;;;1.85;1.30;;;;;;;22.47;52.07;101430.13;16120693;19;129804;-71
2023/08/12 04:55:56;;;;;;;1.80;1.30;;;;;;;22.46;52.13;101422.91;16122448;19;129827;-69
2023/08/12 05:01:18;;;;;;;1.70;1.02;;;;;;;22.47;51.86;101420.94;16119313;19;131642;-70
2023/08/12 05:06:40;;;;;;;2.20;1.10;;;;;;;22.46;52.01;101410.88;16119360;19;130302;-70
2023/08/12 05:12:02;;;;;;;3.33;1.27;;;;;;;22.45;51.98;101410.06;16119179;19;129772;-69
2023/08/12 05:17:24;;;;;;;2.30;1.30;;;;;;;22.45;51.67;101401.69;16119379;19;130276;-69
2023/08/12 05:22:46;;;;;;;1.95;1.10;;;;;;;22.46;51.67;101402.53;16117497;19;130014;-70
2023/08/12 05:28:08;;;;;;;3.53;1.50;;;;;;;22.45;51.95;101398.91;16116900;19;130931;-69
2023/08/12 05:33:30;;;;;;;1.58;1.20;;;;;;;22.46;52.09;101396.94;16110368;19;130968;-68
2023/08/12 05:38:52;;;;;;;2.30;1.20;;;;;;;22.50;52.62;101395.34;16112264;19;131213;-66
2023/08/12 05:44:14;;;;;;;1.58;0.93;;;;;;;22.49;52.45;101400.06;16114430;19;130126;-66
2023/08/12 05:49:36;;;;;;;1.88;1.15;;;;;;;22.50;52.59;101409.28;16117575;19;130714;-66
2023/08/12 05:54:58;;;;;;;2.10;1.40;;;;;;;22.49;52.61;101393.66;16117921;19;130045;-66
2023/08/12 06:00:20;;;;;;;1.70;0.95;;;;;;;22.48;52.49;101397.53;16119472;19;132387;-66
2023/08/12 06:05:44;;;;;;;1.25;0.93;;;;;;;22.48;52.43;101397.53;16118941;19;129332;-66
2023/08/12 06:11:06;;;;;;;1.45;1.00;;;;;;;22.46;52.61;101389.44;16115628;19;130719;-66
2023/08/12 06:16:28;;;;;;;1.80;1.00;;;;;;;22.47;52.46;101395.84;16113519;19;129082;-67
2023/08/12 06:21:50;;;;;;;1.88;1.23;;;;;;;22.47;52.41;101393.06;16113779;19;130516;-66
2023/08/12 06:27:12;;;;;;;2.67;1.02;;;;;;;22.48;52.70;101403.09;16117814;19;129903;-67
2023/08/12 06:32:35;;;;;;;3.20;0.90;;;;;;;22.47;52.34;101396.69;16116750;19;129608;-67
2023/08/12 06:37:57;;;;;;;2.42;0.90;;;;;;;22.47;52.47;101390.28;16114598;19;130208;-67
2023/08/12 06:43:18;;;;;;;1.20;1.10;;;;;;;22.49;52.63;101393.66;16114571;19;129987;-66
2023/08/12 06:48:40;;;;;;;1.55;0.90;;;;;;;22.47;52.78;101393.88;16115986;19;130517;-66
2023/08/12 06:54:03;;;;;;;1.30;0.90;;;;;;;22.48;52.74;101392.78;16113888;19;129681;-66
2023/08/12 06:59:25;;;;;;;1.55;1.05;;;;;;;22.47;52.50;101402.25;16114934;19;129857;-68
2023/08/12 07:04:47;;;;;;;4.60;1.60;;;;;;;22.49;53.33;101402.00;16114167;19;129928;-69
2023/08/12 07:10:09;;;;;;;4.55;1.17;;;;;;;22.49;53.80;101402.00;16114336;19;129469;-68
2023/08/12 07:15:31;;;;;;;5.57;1.08;;;;;;;22.49;53.88;101393.66;16110639;19;129503;-68
2023/08/12 07:20:53;;;;;;;4.57;1.17;;;;;;;22.48;53.40;101387.22;16111794;19;130484;-68
2023/08/12 07:26:15;;;;;;;1.60;1.10;;;;;;;22.48;53.50;101408.69;16119354;19;130690;-67
2023/08/12 07:31:37;;;;;;;2.40;1.10;;;;;;;22.47;53.20;101412.56;16130037;19;129841;-68
2023/08/12 07:36:59;;;;;;;2.30;1.08;;;;;;;22.47;53.67;101404.22;16127559;19;130336;-67
2023/08/12 07:42:21;;;;;;;3.40;1.50;;;;;;;22.46;53.53;101408.09;16128896;19;130819;-67
2023/08/12 07:47:43;;;;;;;1.17;0.93;;;;;;;22.46;53.69;101411.75;16119574;19;130319;-67
2023/08/12 07:53:05;;;;;;;2.33;0.93;;;;;;;22.47;53.46;101426.50;16125323;19;130948;-67
2023/08/12 07:58:27;;;;;;;1.95;0.85;;;;;;;22.47;53.89;101429.31;16113577;19;131983;-68
2023/08/12 08:03:49;;;;;;;3.30;0.90;;;;;;;22.45;53.50;101426.78;16118200;19;131062;-66
2023/08/12 08:09:11;;;;;;;1.45;0.90;;;;;;;22.46;53.61;101436.84;16117673;19;132542;-67
2023/08/12 08:14:33;;;;;;;1.23;0.90;;;;;;;22.46;54.11;101430.41;16116686;19;130240;-67
2023/08/12 08:19:55;;;;;;;1.67;0.90;;;;;;;22.46;53.93;101436.84;16100380;19;130681;-67
2023/08/12 08:25:17;;;;;;;2.35;0.90;;;;;;;22.47;53.38;101443.25;16117607;19;130497;-68
2023/08/12 08:30:39;;;;;;;2.08;1.20;;;;;;;22.46;53.83;101455.50;16117573;19;129590;-67
2023/08/12 08:36:01;;;;;;;1.27;0.73;;;;;;;22.48;53.85;101461.66;16121089;19;129908;-68
2023/08/12 08:41:24;;;;;;;1.65;0.93;;;;;;;22.53;54.38;101481.22;16108914;19;131314;-67
2023/08/12 08:46:46;;;;;;;2.25;0.73;;;;;;;22.55;54.40;101490.16;16117777;19;130452;-67
2023/08/12 08:52:08;;;;;;;2.08;0.88;;;;;;;22.58;54.33;101493.31;16116130;19;130784;-68
2023/08/12 08:57:32;;;;;;;3.33;0.88;;;;;;;22.59;54.41;101502.50;16118646;19;129390;-67
2023/08/12 09:03:10;;;;;;;0.70;0.68;;;;;;;22.61;54.50;101497.50;16115047;19;130075;-67
2023/08/12 09:08:33;;;;;;;2.90;0.90;;;;;;;22.63;54.23;101500.91;16119584;19;130694;-67
2023/08/12 09:13:55;;;;;;;2.25;0.77;;;;;;;22.65;53.97;101514.56;16119354;19;129417;-67
2023/08/12 09:19:17;;;;;;;1.33;0.80;;;;;;;22.65;54.23;101504.25;16117681;19;131157;-68
2023/08/12 09:24:39;;;;;;;1.58;1.10;;;;;;;22.66;54.24;101505.09;16116798;19;129784;-67
2023/08/12 09:30:03;;;;;;;2.20;1.10;;;;;;;22.67;54.32;101513.19;16121213;19;129736;-67
2023/08/12 09:35:34;;;;;;;2.60;1.40;;;;;;;22.68;54.04;101517.66;16117079;19;129556;-67
2023/08/12 09:40:56;;;;;;;1.50;1.27;;;;;;;22.66;53.87;101511.50;16118698;19;133021;-69
2023/08/12 09:46:21;;;;;;;2.70;1.33;;;;;;;22.70;53.72;101501.53;16118436;19;129929;-68
2023/08/12 09:51:44;;;;;;;2.40;1.65;;;;;;;22.73;53.95;101511.31;16117498;19;129488;-69
2023/08/12 09:57:11;;;;;;;2.15;1.50;;;;;;;22.76;53.98;101521.94;16111736;19;130396;-68
2023/08/12 10:02:33;;;;;;;1.88;1.60;;;;;;;22.78;54.17;101524.47;16113203;19;130214;-67
2023/08/12 10:07:55;;;;;;;3.00;1.90;;;;;;;22.79;53.46;101521.44;16115203;19;129529;-69
2023/08/12 10:13:18;;;;;;;3.78;1.60;;;;;;;22.80;53.85;101506.38;16113892;19;131036;-68
2023/08/12 10:18:40;;;;;;;2.08;1.60;;;;;;;22.82;53.92;101525.66;16112679;19;130765;-67
2023/08/12 10:24:04;;;;;;;3.60;1.77;;;;;;;22.83;53.79;101527.34;16106516;19;129707;-66
2023/08/12 10:29:27;;;;;;;1.67;1.42;;;;;;;22.84;53.54;101540.19;16111229;19;131409;-67
2023/08/12 10:34:57;;;;;;;1.70;1.60;;;;;;;22.85;53.66;101530.72;16107037;19;129700;-67
2023/08/12 10:40:22;;;;;;;2.55;1.75;;;;;;;22.86;53.31;101526.81;16111212;19;130078;-67
2023/08/12 10:45:48;;;;;;;;;;;;;;;22.83;53.62;101522.59;16108377;19;130394;-67
2023/08/12 10:51:10;;;;;;;2.58;1.77;;;;;;;22.87;53.34;101539.66;16109702;19;130337;-67
2023/08/12 10:57:11;;;;;;;3.10;1.90;;;;;;;22.88;53.12;101524.63;16109123;19;129686;-67
2023/08/12 11:02:34;;;;;;;3.55;1.70;;;;;;;22.87;53.27;101515.38;16121100;19;131117;-67
2023/08/12 11:08:05;;;;;;;3.15;1.65;;;;;;;22.89;53.01;101512.34;16127267;19;129564;-68
2023/08/12 11:13:28;;;;;;;3.13;1.67;;;;;;;22.89;52.76;101520.72;16125237;19;129543;-67
2023/08/12 11:18:51;;;;;;;3.25;1.60;;;;;;;22.91;53.27;101523.28;16123926;19;131369;-69
2023/08/12 11:24:15;;;;;;;1.92;1.60;;;;;;;22.93;52.84;101510.75;16127758;19;129870;-67
2023/08/12 11:29:38;;;;;;;3.05;1.27;;;;;;;22.94;52.84;101506.84;16124983;19;132727;-67
2023/08/12 11:35:00;;;;;;;2.53;1.60;;;;;;;22.95;52.59;101514.13;16127417;19;131275;-67
2023/08/12 11:40:24;;;;;;;2.90;1.60;;;;;;;22.97;52.64;101509.13;16125478;19;131011;-68
2023/08/12 11:45:46;;;;;;;4.32;1.80;;;;;;;22.97;52.62;101509.13;16120894;19;129740;-68
2023/08/12 11:51:08;;;;;;;3.33;1.73;;;;;;;22.99;52.80;101511.63;16123946;19;129712;-68
2023/08/12 11:56:30;;;;;;;3.55;1.40;;;;;;;23.00;52.39;101507.75;16125265;19;129653;-68
2023/08/12 12:01:54;;;;;;;2.15;1.42;;;;;;;23.01;52.40;101513.09;16121988;19;130302;-65
2023/08/12 12:07:21;;;;;;;1.67;1.40;;;;;;;23.03;52.29;101510.84;16126055;19;129694;-68
2023/08/12 12:12:44;;;;;;;2.03;1.30;;;;;;;23.05;52.35;101505.84;16126139;19;129595;-69
2023/08/12 12:18:13;;;;;;;3.35;1.42;;;;;;;23.05;52.30;101514.22;16122986;19;129060;-68
2023/08/12 12:23:37;;;;;;;2.85;1.38;;;;;;;23.07;52.43;101505.59;16123156;19;129555;-68
2023/08/12 12:28:59;;;;;;;2.30;1.38;;;;;;;23.07;52.15;101510.34;16120944;19;131337;-68
2023/08/12 12:34:22;;;;;;;2.85;1.25;;;;;;;23.08;52.05;101515.63;16123965;19;129529;-67
2023/08/12 12:39:45;;;;;;;2.55;1.30;;;;;;;23.10;52.06;101521.81;16122295;19;129834;-67
2023/08/12 12:45:08;;;;;;;2.30;1.20;;;;;;;23.11;51.99;101522.66;16120182;19;130193;-68
2023/08/12 12:50:30;;;;;;;6.70;1.48;;;;;;;23.12;51.71;101529.94;16118680;19;129750;-68
2023/08/12 12:55:52;;;;;;;3.75;1.17;;;;;;;23.12;51.61;101524.34;16118725;19;129571;-67
2023/08/12 13:01:14;;;;;;;2.28;1.00;;;;;;;23.13;51.76;101535.25;16121773;19;129778;-68
2023/08/12 13:06:37;;;;;;;3.30;1.10;;;;;;;23.13;51.66;101534.41;16120940;19;130837;-68
2023/08/12 13:11:59;;;;;;;2.70;1.20;;;;;;;23.12;51.84;101536.34;16119054;19;129899;-68
2023/08/12 13:17:21;;;;;;;2.67;1.00;;;;;;;23.14;51.53;101538.91;16120634;19;132044;-68
2023/08/12 13:22:43;;;;;;;1.67;0.90;;;;;;;23.14;51.42;101545.31;16117384;19;129900;-68
2023/08/12 13:28:05;;;;;;;3.97;1.17;;;;;;;23.14;51.48;101547.28;16119190;19;129626;-68
2023/08/12 13:33:27;;;;;;;2.10;1.13;;;;;;;23.13;51.41;101557.56;16116245;19;129410;-68
2023/08/12 13:38:49;;;;;;;1.55;0.85;;;;;;;23.14;51.84;101550.06;16118028;19;129276;-69
2023/08/12 13:44:11;;;;;;;2.00;0.88;;;;;;;23.12;51.35;101550.31;16116205;19;130602;-68
2023/08/12 13:49:33;;;;;;;2.97;1.23;;;;;;;23.13;51.15;101537.22;16119959;19;131182;-69
2023/08/12 13:54:55;;;;;;;2.58;1.02;;;;;;;23.13;51.35;101540.81;16116925;19;129939;-68
2023/08/12 14:00:18;;;;;;;2.25;0.70;;;;;;;23.14;51.17;101541.69;16111678;19;130714;-69
2023/08/12 14:05:40;;;;;;;4.10;1.25;;;;;;;23.15;51.46;101537.75;16114656;19;130880;-69
2023/08/12 14:11:02;;;;;;;2.22;1.00;;;;;;;23.14;50.76;101538.91;16117553;19;130432;-69
2023/08/12 14:16:24;;;;;;;3.03;1.00;;;;;;;23.17;50.71;101529.97;16112806;19;129907;-68
2023/08/12 14:21:49;;;;;;;;;;;;;;;23.15;50.68;101534.97;16113971;19;130237;-67
2023/08/12 14:27:12;;;;;;;6.05;1.38;;;;;;;23.17;50.83;101524.38;16113967;19;129664;-67
2023/08/12 14:32:34;;;;;;;3.22;0.90;;;;;;;23.16;50.84;101522.69;16112698;19;131119;-68
2023/08/12 14:37:56;;;;;;;2.72;1.00;;;;;;;23.16;50.46;101519.91;16115650;19;129430;-67
2023/08/12 14:43:18;;;;;;;3.00;1.02;;;;;;;23.15;50.07;101518.22;16115945;19;130831;-68
2023/08/12 14:48:40;;;;;;;1.80;0.80;;;;;;;23.15;50.15;101512.63;16113522;19;129474;-68
2023/08/12 14:54:02;;;;;;;2.10;0.93;;;;;;;23.13;50.70;101520.47;16118553;19;129665;-68
2023/08/12 14:59:24;;;;;;;2.30;0.90;;;;;;;23.13;50.39;101514.88;16169064;19;129957;-67
2023/08/12 15:04:46;;;;;;;4.72;0.88;;;;;;;23.12;50.31;101515.97;16195917;19;128317;-68
2023/08/12 15:10:09;;;;;;;4.13;0.93;;;;;;;23.13;50.31;101514.88;16194435;19;128569;-67
2023/08/12 15:15:31;;;;;;;2.75;0.93;;;;;;;23.13;50.45;101517.66;16194614;19;129008;-66
2023/08/12 15:20:53;;;;;;;2.17;1.00;;;;;;;23.13;50.22;101506.50;16190583;19;130196;-67
2023/08/12 15:26:15;;;;;;;2.55;1.02;;;;;;;23.14;50.15;101513.78;16191395;19;128248;-68
2023/08/12 15:31:38;;;;;;;5.00;0.90;;;;;;;23.14;50.09;101510.97;16191293;19;129009;-68
2023/08/12 15:37:00;;;;;;;4.40;1.00;;;;;;;23.14;49.85;101511.81;16192413;19;128309;-68
2023/08/12 15:42:21;;;;;;;5.72;1.23;;;;;;;23.13;49.84;101515.72;16191771;19;132905;-66
2023/08/12 15:47:43;;;;;;;2.63;0.73;;;;;;;23.13;49.79;101514.88;16199277;19;129334;-68
2023/08/12 15:53:05;;;;;;;3.28;1.00;;;;;;;23.11;49.65;101517.91;16207353;19;129142;-68
2023/08/12 15:58:27;;;;;;;1.67;0.93;;;;;;;23.11;49.75;101517.09;16164613;19;130320;-67
2023/08/12 16:03:49;;;;;;;2.10;1.00;;;;;;;23.11;50.08;101519.88;16123813;19;129492;-68
2023/08/12 16:09:13;;;;;;;5.25;1.02;;;;;;;23.12;49.94;101513.19;16118136;19;129359;-67
2023/08/12 16:14:40;;;;;;;2.08;0.93;;;;;;;23.12;50.11;101508.44;16112545;19;133937;-68
2023/08/12 16:20:02;;;;;;;5.00;1.00;;;;;;;23.10;49.83;101504.22;16104874;19;132941;-67
2023/08/12 16:25:24;;;;;;;2.08;0.70;;;;;;;23.09;50.11;101508.13;16118660;19;130398;-67
2023/08/12 16:30:46;;;;;;;3.70;1.20;;;;;;;23.05;49.99;101514.22;16118249;19;129868;-67
2023/08/12 16:36:08;;;;;;;4.10;1.45;;;;;;;23.05;50.02;101518.97;16117877;19;130716;-67
2023/08/12 16:41:30;;;;;;;3.22;1.25;;;;;;;23.04;49.87;101520.09;16114598;19;130519;-66
2023/08/12 16:46:52;;;;;;;3.33;1.10;;;;;;;23.03;50.16;101527.59;16118589;19;131574;-66
2023/08/12 16:52:14;;;;;;;3.38;1.20;;;;;;;23.03;49.95;101523.97;16109392;19;130848;-67
2023/08/12 16:57:36;;;;;;;4.00;0.90;;;;;;;23.02;49.81;101520.31;16111512;19;131708;-67
2023/08/12 17:02:58;;;;;;;2.42;1.10;;;;;;;23.02;49.90;101523.13;16119588;19;129276;-66
2023/08/12 17:08:20;;;;;;;2.90;1.10;;;;;;;23.02;49.89;101525.91;16123194;19;130306;-68
2023/08/12 17:13:42;;;;;;;3.65;1.30;;;;;;;23.02;50.14;101525.91;16122957;19;130144;-66
2023/08/12 17:19:05;;;;;;;3.28;1.10;;;;;;;23.02;50.01;101522.28;16118984;19;130692;-66
2023/08/12 17:24:27;;;;;;;4.55;1.40;;;;;;;23.02;49.72;101525.91;16119364;19;130949;-66
2023/08/12 17:29:49;;;;;;;1.23;0.82;;;;;;;23.02;49.69;101514.75;16120375;19;130008;-66
2023/08/12 17:35:11;;;;;;;4.65;1.23;;;;;;;23.01;49.56;101529.84;16120655;19;130273;-66
2023/08/12 17:40:33;;;;;;;4.70;1.38;;;;;;;23.02;49.67;101527.88;16114740;19;129697;-66
2023/08/12 17:45:55;;;;;;;6.03;1.13;;;;;;;23.01;49.09;101540.13;16119712;19;129359;-66
2023/08/12 17:51:17;;;;;;;3.53;1.23;;;;;;;22.99;49.55;101537.63;16114666;19;130479;-66
2023/08/12 17:56:39;;;;;;;5.28;1.25;;;;;;;22.97;49.25;101531.44;16115899;19;129597;-67
2023/08/12 18:02:01;;;;;;;6.35;1.40;;;;;;;22.95;48.96;101546.78;16117430;19;130511;-66
2023/08/12 18:07:25;;;;;;;10.07;1.77;;;;;;;22.93;48.83;101548.97;16113760;19;131063;-67
2023/08/12 18:12:47;;;;;;;7.45;1.80;;;;;;;22.93;48.91;101549.81;16108130;19;129718;-67
2023/08/12 18:18:09;;;;;;;9.75;1.88;;;;;;;22.89;48.71;101557.81;16106948;19;130432;-67
2023/08/12 18:23:31;;;;;;;5.55;2.00;;;;;;;22.89;48.82;101559.78;16111966;19;130087;-67
2023/08/12 18:28:53;;;;;;;6.10;1.70;;;;;;;22.88;49.06;101574.84;16111054;19;130868;-67
2023/08/12 18:34:15;;;;;;;5.70;1.67;;;;;;;22.86;48.88;101572.28;16113553;19;130788;-67
2023/08/12 18:39:37;;;;;;;7.22;1.70;;;;;;;22.86;48.75;101588.19;16111301;19;131828;-66
2023/08/12 18:44:59;;;;;;;8.80;1.90;;;;;;;22.84;48.91;101591.22;16112809;19;130828;-66
2023/08/12 18:50:21;;;;;;;4.07;1.63;;;;;;;22.82;48.51;101587.03;16109067;19;130259;-66
2023/08/12 18:55:43;;;;;;;4.53;1.73;;;;;;;22.80;49.07;101590.06;16110944;19;131317;-66
2023/08/12 19:01:05;;;;;;;4.50;1.70;;;;;;;22.78;48.70;101589.50;16112063;19;130052;-66
2023/08/12 19:06:27;;;;;;;6.85;1.90;;;;;;;22.76;48.62;101594.47;16109549;19;130101;-66
2023/08/12 19:11:49;;;;;;;9.70;1.60;;;;;;;22.79;48.35;101599.53;16103533;19;129482;-62
2023/08/12 19:17:11;;;;;;;6.10;1.45;;;;;;;22.82;48.17;101595.38;16104507;19;129328;-66
2023/08/12 19:22:33;;;;;;;11.52;1.85;;;;;;;22.83;48.47;101611.84;16112816;19;129709;-67
2023/08/12 19:27:54;;;;;;;12.10;1.77;;;;;;;22.84;48.50;101623.88;16124611;19;129676;-65
2023/08/12 19:33:19;;;;;;;14.38;1.88;;;;;;;22.86;48.43;101628.09;16124028;19;133064;-66
2023/08/12 19:38:41;;;;;;;21.13;2.97;;;;;;;22.87;48.78;101631.72;16122025;19;129291;-65
2023/08/12 19:44:04;;;;;;;18.98;2.38;;;;;;;22.87;49.00;101640.94;16119485;19;130248;-66
2023/08/12 19:49:27;;;;;;;16.35;2.40;;;;;;;22.86;48.62;101635.63;16119609;19;129756;-66
2023/08/12 19:54:49;;;;;;;21.23;2.40;;;;;;;22.88;48.48;101644.59;16121418;19;129545;-68
2023/08/12 20:00:12;;;;;;;13.77;2.25;;;;;;;22.88;48.51;101641.78;16122967;19;131222;-70
2023/08/12 20:05:34;;;;;;;11.20;2.05;;;;;;;22.88;48.94;101645.41;16124008;19;130183;-70
2023/08/12 20:10:56;;;;;;;16.58;1.80;;;;;;;22.89;49.12;101644.31;16126699;19;130462;-67
2023/08/12 20:16:18;;;;;;;11.90;1.42;;;;;;;22.91;49.12;101649.66;16124272;19;129914;-67
2023/08/12 20:21:40;;;;;;;16.98;2.13;;;;;;;22.91;49.01;101641.28;16153021;19;131486;-67
2023/08/12 20:27:02;;;;;;;14.50;2.10;;;;;;;22.91;49.48;101654.41;16157380;19;130729;-67
2023/08/12 20:32:28;;;;;;;17.33;1.85;;;;;;;22.89;49.61;101649.06;16120729;19;129847;-67
2023/08/12 20:37:50;;;;;;;14.38;1.85;;;;;;;22.88;49.34;101653.78;16119798;19;131381;-67
2023/08/12 20:43:12;;;;;;;14.07;2.20;;;;;;;22.88;49.45;101648.19;16123249;19;129761;-66
2023/08/12 20:48:34;;;;;;;14.23;1.70;;;;;;;22.89;49.34;101647.09;16117805;19;129825;-67
2023/08/12 20:53:56;;;;;;;13.45;1.85;;;;;;;22.91;49.92;101646.88;16110920;19;129764;-61
2023/08/12 20:59:18;;;;;;;20.17;3.15;;;;;;;22.87;50.10;101652.09;16116983;19;129813;-62
2023/08/12 21:04:41;;;;;;;12.85;2.42;;;;;;;22.85;49.99;101653.47;16116544;19;129468;-62
2023/08/12 21:10:03;;;;;;;17.23;2.80;;;;;;;22.84;50.03;101655.41;16116887;19;130435;-62
2023/08/12 21:15:25;;;;;;;9.05;1.60;;;;;;;22.83;50.17;101661.25;16112783;19;130458;-62
2023/08/12 21:20:47;;;;;;;7.75;1.58;;;;;;;22.81;50.01;101652.28;16113816;19;129817;-62
2023/08/12 21:26:09;;;;;;;7.93;1.58;;;;;;;22.79;49.95;101654.47;16106885;19;130268;-62
2023/08/12 21:31:31;;;;;;;12.30;2.30;;;;;;;22.77;50.18;101659.50;16113190;19;129713;-62
2023/08/12 21:36:53;;;;;;;8.35;1.60;;;;;;;22.77;50.03;101676.22;16116524;19;130652;-61
2023/08/12 21:42:15;;;;;;;8.00;1.58;;;;;;;22.76;50.05;101674.53;16113293;19;130358;-62
2023/08/12 21:47:37;;;;;;;8.57;1.42;;;;;;;22.73;49.79;101671.16;16111119;19;129965;-62
2023/08/12 21:52:59;;;;;;;7.13;1.55;;;;;;;22.73;50.15;101673.94;16114358;19;130227;-62
2023/08/12 21:58:21;;;;;;;5.38;1.30;;;;;;;22.71;49.81;101678.94;16107243;19;129738;-62
2023/08/12 22:03:43;;;;;;;7.43;1.40;;;;;;;22.70;50.07;101679.19;16112461;19;129250;-61
2023/08/12 22:09:06;;;;;;;6.28;1.13;;;;;;;22.68;49.60;101676.66;16109213;19;130519;-61
2023/08/12 22:14:29;;;;;;;7.57;1.48;;;;;;;22.67;49.95;101677.75;16109419;19;129551;-62
2023/08/12 22:19:51;;;;;;;4.97;1.27;;;;;;;22.67;49.85;101679.72;16108561;19;130869;-62
2023/08/12 22:25:13;;;;;;;5.68;1.27;;;;;;;22.67;50.27;101674.97;16108079;19;130479;-63
2023/08/12 22:30:36;;;;;;;2.88;1.10;;;;;;;22.66;49.85;101670.47;16111518;19;129749;-63
2023/08/12 22:35:58;;;;;;;4.97;1.25;;;;;;;22.64;49.87;101675.50;16107895;19;129770;-62
2023/08/12 22:41:20;;;;;;;3.70;1.08;;;;;;;22.63;50.10;101662.66;16108785;19;130502;-62
2023/08/12 22:46:41;;;;;;;3.00;1.05;;;;;;;22.63;50.03;101682.16;16109406;19;133833;-62
2023/08/12 22:52:04;;;;;;;3.97;1.08;;;;;;;22.63;49.94;101673.81;16108907;19;129808;-62
2023/08/12 22:57:26;;;;;;;3.83;1.25;;;;;;;22.61;49.74;101675.13;16106593;19;130116;-62
2023/08/12 23:02:48;;;;;;;4.53;0.90;;;;;;;22.61;49.94;101686.28;16109475;19;129732;-62
2023/08/12 23:08:10;;;;;;;3.08;1.00;;;;;;;22.61;49.98;101680.72;16110265;19;130268;-62
2023/08/12 23:13:32;;;;;;;3.85;1.38;;;;;;;22.59;49.95;101689.34;16107636;19;131031;-62
2023/08/12 23:18:54;;;;;;;6.13;1.25;;;;;;;22.60;50.05;101677.09;16107401;19;131644;-62
2023/08/12 23:24:16;;;;;;;4.68;1.23;;;;;;;22.59;49.92;101683.78;16101186;19;129606;-61
2023/08/12 23:29:37;;;;;;;3.00;1.08;;;;;;;22.58;49.87;101682.94;16103762;19;130138;-62
2023/08/12 23:34:59;;;;;;;3.38;1.05;;;;;;;22.57;49.93;101683.16;16105896;19;130642;-62
2023/08/12 23:40:21;;;;;;;2.50;0.90;;;;;;;22.57;49.83;101672.03;16101557;19;130675;-62
2023/08/12 23:45:43;;;;;;;2.80;0.70;;;;;;;22.57;50.16;101680.38;16101446;19;129988;-62
2023/08/12 23:51:05;;;;;;;3.45;1.10;;;;;;;22.55;49.76;101685.38;16108346;19;130475;-62
2023/08/12 23:56:27;;;;;;;3.40;1.10;;;;;;;22.54;49.73;101678.97;16106723;19;130812;-62
